Allouez, MI

2:05 PM EDT on August 29, 2014 (GMT -0400)
Kings Land O'Lakes | Change Station
CLOSE
Current Station
Airport
Location: Land O' Lakes,
Elevation: 1706 ft
Nearby Weather Stations

Elev 1706 ft 46.15 °N, 89.21 °W | Updated 10 minutes ago

Overcast
Overcast
65 °F
Feels Like 65 °F
N
6
Wind Variable Wind from SSE

Today
High -- | Low -- °F
--% Chance of Precip.
Yesterday
High -- | Low -- °F
Precip. -- in
7:08 AM 8:39 PM
Waxing Crescent, 15% visible
Pressure 29.89 in
Visibility 10.0 miles
Clouds Overcast 400 ft
Dew Point 63 °F
Humidity 91%
Rainfall 0.05 in
Snow Depth Not available.
UV 3 out of 12
Pollen 3.10 out of 12
Air Quality Not available.
Flu Activity Not available.
METAR KLNL 291755Z AUTO 16005KT 10SM OVC004 19/17 A2989 RMK AO2 60002 T01850170 10185 20145

More Conditions Fewer Conditions

Pressure 29.89 in
Visibility 10.0 miles
Clouds Overcast 400 ft
Dew Point 63 °F
Humidity 91%
Rainfall 0.05 in
Snow Depth Not available.
UV 3 out of 12
Pollen 3.10 out of 12
Air Quality Not available.
Flu Activity Not available.
METAR KLNL 291755Z AUTO 16005KT 10SM OVC004 19/17 A2989 RMK AO2 60002 T01850170 10185 20145

More Conditions Fewer Conditions

10-Day Weather Forecast

Almanac

Astronomy

Aug. 29, 2014 Rise Set
Actual Time 7:08 AM EDT 8:39 PM EDT
Civil Twilight 6:36 AM EDT 9:11 PM EDT
Nautical Twilight 5:57 AM EDT 9:50 PM EDT
Astronomical Twilight 5:15 AM EDT 10:31 PM EDT
Moon 11:16 AM EDT 10:17 PM EDT
Length of Visible Light 14h 34m
Length of Day
13h 30m
Tomorrow will be 3m 15s shorter.
Waxing Crescent, 15% of the Moon is Illuminated
Today
Waxing Crescent
Sep 2
First Quarter
Sep 8
Full
Sep 15
Last Quarter
Sep 24
New

Today's Extremes

State Highs State Lows

Community

WunderPhotos

Upload Photos

1,748,307 photos uploaded!

Nearby

Snow Depth

Station Depth Elevation
No new snow has been reported.

Earthquake Activity

City Distance Mag. Time & Date
No recent earthquake activity has been reported nearby.
Minimum magnitude displayed is 2.5.

Coastal Water Temperatures

Place Temperature
No Stations Reporting

Nearby Weather Stations